Terminal Aerodrome Forecast
Issued by NWS

Home | Current Version | Previous Version | Text Only | Print | Product List | Glossary On
Versions: 1 2 3 4 5 6 7 8 9 10 11 12 13 14 15 16 17
000
FTPA31 PHFO 251740
TAFHNY
TAF
PHNY 251740Z 2518/2618 04009KT P6SM SCT030
      TEMPO 2521/2601 VRB06KT P6SM BKN030
     FM260100 04011KT P6SM SCT030
     FM261100 04008KT P6SM FEW030=

USA.gov is the U.S. government's official web portal to all federal, state and local government web resources and services.